createdAt,value
2022-12-24T00:01:48.953Z,7.07
2022-12-24T00:06:51.462Z,6.97
2022-12-24T00:11:54.163Z,6.93
2022-12-24T00:16:56.846Z,6.9
2022-12-24T00:21:59.537Z,6.92
2022-12-24T00:27:02.271Z,6.91
2022-12-24T00:32:04.788Z,6.86
2022-12-24T00:37:07.347Z,6.86
2022-12-24T00:42:09.974Z,6.84
2022-12-24T00:47:12.488Z,6.87
2022-12-24T00:52:15.658Z,6.85
2022-12-24T00:57:18.287Z,6.91
2022-12-24T01:02:20.942Z,6.92
2022-12-24T01:07:23.416Z,6.9
2022-12-24T01:12:26.012Z,6.87
2022-12-24T01:17:28.687Z,6.85
2022-12-24T01:22:31.262Z,6.78
2022-12-24T01:27:33.678Z,6.85
2022-12-24T01:32:36.073Z,6.84
2022-12-24T01:37:38.694Z,6.85
2022-12-24T01:42:41.439Z,6.83
2022-12-24T01:47:44.303Z,6.86
2022-12-24T01:52:46.856Z,6.88
2022-12-24T01:57:49.363Z,6.87
2022-12-24T02:02:57.436Z,6.92
2022-12-24T02:08:00.216Z,6.95
2022-12-24T02:13:02.655Z,6.9
2022-12-24T02:18:05.101Z,6.96
2022-12-24T02:23:07.734Z,6.96
2022-12-24T02:28:10.339Z,6.96
2022-12-24T02:33:13.034Z,6.95
2022-12-24T02:38:15.906Z,6.95
2022-12-24T02:43:18.551Z,6.97
2022-12-24T02:48:21.225Z,6.94
2022-12-24T02:53:23.855Z,6.94
2022-12-24T02:58:26.517Z,6.91
2022-12-24T03:03:29.361Z,6.94
2022-12-24T03:08:32.035Z,6.98
2022-12-24T03:13:34.552Z,6.97
2022-12-24T03:18:37.133Z,6.97
2022-12-24T03:23:39.821Z,6.97
2022-12-24T03:28:42.527Z,6.92
2022-12-24T03:33:45.122Z,7.05
2022-12-24T03:38:47.680Z,7.02
2022-12-24T03:43:54.374Z,7.01
2022-12-24T03:48:57.204Z,7.01
2022-12-24T03:53:59.927Z,7.13
2022-12-24T03:59:02.483Z,7.04
2022-12-24T04:04:05.141Z,7
2022-12-24T04:09:07.690Z,7.02
2022-12-24T04:14:10.553Z,7.06
2022-12-24T04:19:13.385Z,7.1
2022-12-24T04:24:16.014Z,7.15
2022-12-24T04:29:18.668Z,7.15
2022-12-24T04:34:24.315Z,7.11
2022-12-24T04:39:27.068Z,7.08
2022-12-24T04:44:44.798Z,7.11
2022-12-24T04:49:47.522Z,7.01
2022-12-24T04:54:50.341Z,7.05
2022-12-24T04:59:53.067Z,7.09
2022-12-24T05:04:55.519Z,6.96
2022-12-24T05:15:00.722Z,6.97
2022-12-24T05:20:03.116Z,6.96
2022-12-24T05:25:08.557Z,6.95
2022-12-24T05:30:11.426Z,6.93
2022-12-24T05:40:59.122Z,6.98
2022-12-24T05:46:01.762Z,6.95
2022-12-24T05:51:04.282Z,6.8
2022-12-24T05:56:06.756Z,6.82
2022-12-24T06:01:12.523Z,6.9
2022-12-24T06:06:15.348Z,6.8
2022-12-24T06:11:17.977Z,6.75
2022-12-24T06:16:20.862Z,6.81
2022-12-24T06:21:23.440Z,6.8
2022-12-24T06:26:25.787Z,6.72
2022-12-24T06:31:31.439Z,6.76
2022-12-24T06:36:34.128Z,6.79
2022-12-24T06:41:36.795Z,6.76
2022-12-24T06:46:39.913Z,6.82
2022-12-24T06:51:42.496Z,6.77
2022-12-24T06:56:45.121Z,6.78
2022-12-24T07:01:47.707Z,6.8
2022-12-24T07:11:52.979Z,6.88
2022-12-24T07:16:59.091Z,6.81
2022-12-24T07:21:58.221Z,6.89
2022-12-24T07:27:01.111Z,7
2022-12-24T07:32:03.752Z,6.98
2022-12-24T07:37:06.383Z,6.93
2022-12-24T07:42:08.988Z,6.93
2022-12-24T07:47:11.808Z,6.91
2022-12-24T07:52:14.352Z,6.96
2022-12-24T07:57:16.910Z,6.91
2022-12-24T08:02:19.962Z,6.92
2022-12-24T08:07:22.495Z,6.96
2022-12-24T08:12:28.041Z,6.96
2022-12-24T08:17:32.469Z,6.96
2022-12-24T08:22:33.014Z,7.01
2022-12-24T08:27:38.476Z,7
2022-12-24T08:32:40.915Z,7.12
2022-12-24T08:37:43.761Z,7.13
2022-12-24T08:42:49.161Z,7.14
2022-12-24T08:47:51.739Z,7.18
2022-12-24T08:58:02.498Z,7.3
2022-12-24T09:03:05.219Z,7.4
2022-12-24T09:08:07.970Z,7.26
2022-12-24T09:13:10.823Z,7.32
2022-12-24T09:18:13.336Z,7.49
2022-12-24T09:23:15.861Z,7.52
2022-12-24T09:28:18.447Z,7.64
2022-12-24T09:33:21.229Z,7.62
2022-12-24T09:38:23.906Z,7.64
2022-12-24T09:43:26.705Z,7.74
2022-12-24T15:35:20.840Z,8.46
2022-12-24T15:40:21.801Z,8.37
2022-12-24T15:45:27.972Z,8.29
2022-12-24T15:50:30.586Z,8.17
2022-12-24T15:55:38.425Z,8.09
2022-12-24T16:00:36.782Z,8.03
2022-12-24T16:05:39.482Z,8.01
2022-12-24T16:10:42.537Z,7.95
2022-12-24T16:15:45.586Z,7.99
2022-12-24T16:20:50.513Z,7.93
2022-12-24T16:25:53.703Z,7.86
2022-12-24T16:30:59.292Z,7.75
2022-12-24T16:36:02.485Z,7.75
2022-12-24T16:41:05.821Z,7.74
2022-12-24T16:46:09.123Z,7.75
2022-12-24T16:51:12.305Z,7.81
2022-12-24T16:56:15.633Z,7.85
2022-12-24T17:01:19.142Z,7.88
2022-12-24T17:06:22.407Z,7.79
2022-12-24T17:11:25.635Z,7.71
2022-12-24T17:16:28.972Z,7.61
2022-12-24T17:21:32.470Z,7.66
2022-12-24T17:26:35.953Z,7.7
2022-12-24T17:31:41.551Z,7.87
2022-12-24T17:36:44.934Z,7.99
2022-12-24T17:41:48.336Z,8.12
2022-12-24T17:46:51.962Z,8.13
2022-12-24T17:51:55.220Z,8.13
2022-12-24T17:56:58.598Z,8.24
2022-12-24T18:02:04.704Z,8.27
2022-12-24T18:07:07.825Z,8.35
2022-12-24T18:12:10.851Z,8.36
2022-12-24T18:17:14.182Z,8.34
2022-12-24T18:22:20.630Z,8.36
2022-12-24T18:27:24.220Z,8.41
2022-12-24T18:32:27.306Z,8.45
2022-12-24T18:37:30.738Z,8.51
2022-12-24T18:42:33.912Z,8.55
2022-12-24T18:52:43.051Z,8.58
2022-12-24T18:57:46.084Z,8.6
2022-12-24T19:02:49.302Z,8.58
2022-12-24T19:07:56.013Z,8.6
2022-12-24T19:12:59.219Z,8.57
2022-12-24T19:23:05.879Z,8.47
2022-12-24T19:28:09.253Z,8.46
2022-12-24T19:33:12.428Z,8.5
2022-12-24T19:38:15.754Z,8.45
2022-12-24T19:43:18.969Z,8.38
2022-12-24T19:48:22.190Z,8.33
2022-12-24T19:53:28.167Z,8.27
2022-12-24T19:58:31.388Z,8.29
2022-12-24T20:03:34.624Z,8.3
2022-12-24T20:08:37.933Z,8.31
2022-12-24T20:13:41.127Z,8.39
2022-12-24T20:18:44.654Z,8.38
2022-12-24T20:23:48.023Z,8.41
2022-12-24T20:28:51.123Z,8.38
2022-12-24T20:33:54.362Z,8.37
2022-12-24T20:38:59.937Z,8.26
2022-12-24T20:44:02.764Z,8.26
2022-12-24T20:54:11.490Z,8.27
2022-12-24T20:59:14.228Z,8.29
2022-12-24T21:04:16.841Z,8.37
2022-12-24T21:09:19.719Z,8.35
2022-12-24T21:19:25.858Z,8.36
2022-12-24T21:29:31.475Z,8.37
2022-12-24T21:34:33.891Z,8.41
2022-12-24T21:39:36.814Z,8.41
2022-12-24T21:45:19.467Z,8.46
2022-12-24T21:50:24.636Z,8.49
2022-12-24T21:55:24.902Z,8.44
2022-12-24T22:00:27.508Z,8.48
2022-12-24T22:05:30.291Z,8.45
2022-12-24T22:10:33.045Z,8.5
2022-12-24T22:15:36.300Z,8.46
2022-12-24T22:20:38.916Z,8.37
2022-12-24T22:25:41.219Z,8.39
2022-12-24T22:30:43.903Z,8.38
2022-12-24T22:35:46.635Z,8.27
2022-12-24T22:40:51.064Z,8.18
2022-12-24T22:45:53.928Z,8.14
2022-12-24T22:50:56.520Z,8.04
2022-12-24T22:55:59.053Z,7.99
2022-12-24T23:01:01.666Z,7.94
2022-12-24T23:06:04.344Z,7.87
2022-12-24T23:11:07.097Z,7.76
2022-12-24T23:16:10.020Z,7.73
2022-12-24T23:21:12.582Z,7.62
2022-12-24T23:26:15.773Z,7.49
2022-12-24T23:31:18.440Z,7.38
2022-12-24T23:36:21.084Z,7.36
2022-12-24T23:41:23.643Z,7.29
2022-12-24T23:46:26.411Z,7.15
2022-12-24T23:51:29.578Z,7.11
2022-12-24T23:56:32.235Z,6.99
